createdAt,value
2018-10-18T00:02:32.180Z,92.5
2018-10-18T00:07:32.123Z,91.5
2018-10-18T00:12:32.056Z,91.6
2018-10-18T00:17:32.053Z,92
2018-10-18T00:22:32.045Z,92.1
2018-10-18T00:27:32.005Z,91.8
2018-10-18T00:32:32.041Z,91.8
2018-10-18T00:37:32.055Z,92.6
2018-10-18T00:42:32.244Z,93.1
2018-10-18T00:47:43.762Z,92.4
2018-10-18T00:52:43.697Z,92.2
2018-10-18T00:57:43.496Z,92.2
2018-10-18T01:02:43.646Z,92.2
2018-10-18T01:07:43.512Z,91.8
2018-10-18T01:12:43.823Z,91.5
2018-10-18T01:17:43.507Z,92.1
2018-10-18T01:22:43.782Z,91.5
2018-10-18T01:27:43.922Z,91.2
2018-10-18T01:32:56.120Z,91.8
2018-10-18T01:37:56.297Z,91.2
2018-10-18T01:42:55.988Z,91.2
2018-10-18T01:47:55.921Z,91.8
2018-10-18T01:52:56.073Z,91.2
2018-10-18T01:57:55.866Z,93.3
2018-10-18T02:02:56.004Z,91.7
2018-10-18T02:07:56.664Z,91.8
2018-10-18T02:12:56.524Z,91.9
2018-10-18T02:18:09.154Z,92.7
2018-10-18T02:23:08.779Z,94.1
2018-10-18T02:28:08.815Z,93.1
2018-10-18T02:33:08.653Z,92.1
2018-10-18T02:38:08.776Z,92.6
2018-10-18T02:43:08.659Z,92
2018-10-18T02:48:08.947Z,91.3
2018-10-18T02:53:09.210Z,91.4
2018-10-18T02:58:08.930Z,91.3
2018-10-18T03:03:21.304Z,92.4
2018-10-18T03:08:21.254Z,91.6
2018-10-18T03:13:21.173Z,91.1
2018-10-18T03:18:21.244Z,91.4
2018-10-18T03:23:21.119Z,92.5
2018-10-18T03:28:21.189Z,92.1
2018-10-18T03:33:21.218Z,91.4
2018-10-18T03:38:21.510Z,93.4
2018-10-18T03:43:21.418Z,92.2
2018-10-18T03:48:34.091Z,91.8
2018-10-18T03:53:33.757Z,91.5
2018-10-18T03:58:33.875Z,91.5
2018-10-18T04:03:33.904Z,91.7
2018-10-18T04:08:33.984Z,91.8
2018-10-18T04:13:34.048Z,91.8
2018-10-18T04:18:34.055Z,91.8
2018-10-18T04:23:35.510Z,92.6
2018-10-18T04:28:35.422Z,92.2
2018-10-18T04:33:49.408Z,92.5
2018-10-18T04:38:49.231Z,91.8
2018-10-18T04:43:48.998Z,91.6
2018-10-18T04:48:49.578Z,92.3
2018-10-18T04:53:49.021Z,92.5
2018-10-18T04:58:49.386Z,92.3
2018-10-18T05:03:49.074Z,92.3
2018-10-18T05:08:53.015Z,92.9
2018-10-18T05:13:52.935Z,92.6
2018-10-18T05:19:11.268Z,92.5
2018-10-18T05:24:10.722Z,92.3
2018-10-18T05:29:13.147Z,92.6
2018-10-18T05:34:12.867Z,92.1
2018-10-18T05:39:25.856Z,92.6
2018-10-18T05:44:25.807Z,92.2
2018-10-18T05:49:25.710Z,92.3
2018-10-18T05:54:25.809Z,91.5
2018-10-18T05:59:25.548Z,91.6
2018-10-18T06:04:25.730Z,92.2
2018-10-18T06:09:25.741Z,92.1
2018-10-18T06:14:27.478Z,92.8
2018-10-18T06:19:27.459Z,93.3
2018-10-18T06:24:37.964Z,92.3
2018-10-18T06:29:37.696Z,93.2
2018-10-18T06:34:37.937Z,91.7
2018-10-18T06:39:37.843Z,92.3
2018-10-18T06:44:37.707Z,95
2018-10-18T06:49:37.933Z,95.7
2018-10-18T06:54:37.833Z,94.9
2018-10-18T06:59:40.794Z,96.1
2018-10-18T07:04:40.486Z,96.1
2018-10-18T07:09:58.663Z,95.3
2018-10-18T07:14:58.559Z,95
2018-10-18T07:19:58.348Z,95.2
2018-10-18T07:24:58.529Z,93.7
2018-10-18T07:29:58.423Z,94.4
2018-10-18T07:34:58.731Z,93.8
2018-10-18T07:39:58.634Z,92.3
2018-10-18T07:45:00.028Z,94.4
2018-10-18T07:49:59.915Z,92.6
2018-10-18T07:55:11.991Z,91.5
2018-10-18T08:00:12.515Z,92.7
2018-10-18T08:05:11.674Z,90.9
2018-10-18T08:10:11.682Z,92.3
2018-10-18T08:15:11.876Z,91.4
2018-10-18T08:20:11.916Z,90.7
2018-10-18T08:25:12.000Z,92
2018-10-18T08:30:11.707Z,87.1
2018-10-18T08:35:11.933Z,90.4
2018-10-18T08:40:24.193Z,91.9
2018-10-18T08:45:24.164Z,88.5
2018-10-18T08:50:24.084Z,87.6
2018-10-18T08:55:24.115Z,86.2
2018-10-18T09:00:23.915Z,87.5
2018-10-18T09:05:23.962Z,83.2
2018-10-18T09:10:24.110Z,86.8
2018-10-18T09:15:23.915Z,87.5
2018-10-18T09:20:23.934Z,84.7
2018-10-18T09:25:37.007Z,82.8
2018-10-18T09:30:36.734Z,83.6
2018-10-18T09:35:36.882Z,85.6
2018-10-18T09:40:36.835Z,84.1
2018-10-18T09:45:36.726Z,84.6
2018-10-18T09:50:36.873Z,81.3
2018-10-18T09:55:37.243Z,83.8
2018-10-18T10:00:36.925Z,83.8
2018-10-18T10:05:37.104Z,83.2
2018-10-18T10:10:49.839Z,82.9
2018-10-18T10:15:49.557Z,81.6
2018-10-18T10:20:49.697Z,83
2018-10-18T10:25:49.753Z,77.5
2018-10-18T10:30:49.568Z,79.6
2018-10-18T10:35:49.500Z,78.4
2018-10-18T10:40:49.580Z,80.2
2018-10-18T10:45:51.042Z,79.2
2018-10-18T10:50:50.480Z,77.7
2018-10-18T10:56:03.399Z,76.8
2018-10-18T11:01:05.711Z,75.8
2018-10-18T11:06:03.211Z,73.6
2018-10-18T11:11:03.047Z,73.1
2018-10-18T11:16:02.952Z,73.3
2018-10-18T11:21:03.338Z,73.3
2018-10-18T11:26:03.209Z,73.6
2018-10-18T11:31:03.522Z,73.4
2018-10-18T11:36:03.431Z,74.3
2018-10-18T11:41:16.062Z,74.1
2018-10-18T11:46:15.720Z,73.5
2018-10-18T11:51:17.288Z,73.4
2018-10-18T11:56:16.251Z,71.7
2018-10-18T12:01:16.934Z,74.2
2018-10-18T12:06:15.906Z,72.7
2018-10-18T12:11:16.241Z,72.3
2018-10-18T12:16:15.880Z,73.3
2018-10-18T12:21:16.149Z,72.3
2018-10-18T12:26:16.431Z,72.5
2018-10-18T12:31:28.114Z,71.5
2018-10-18T12:36:28.151Z,71.8
2018-10-18T12:41:28.321Z,71.1
2018-10-18T12:46:28.040Z,71.1
2018-10-18T12:51:28.090Z,70.6
2018-10-18T12:56:27.884Z,71.1
2018-10-18T13:01:27.884Z,70.5
2018-10-18T13:06:28.076Z,71.4
2018-10-18T13:11:28.016Z,70.4
2018-10-18T13:16:28.041Z,69.5
2018-10-18T13:21:28.097Z,69.1
2018-10-18T13:26:28.108Z,69.9
2018-10-18T13:31:28.881Z,69.6
2018-10-18T13:36:28.818Z,69.5
2018-10-18T13:41:40.870Z,69.2
2018-10-18T13:46:40.593Z,70.6
2018-10-18T13:51:40.762Z,70.1
2018-10-18T13:56:40.796Z,70.3
2018-10-18T14:01:40.603Z,71.1
2018-10-18T14:06:40.768Z,70.8
2018-10-18T14:11:40.618Z,70.7
2018-10-18T14:16:43.208Z,71.1
2018-10-18T14:21:42.942Z,72.4
2018-10-18T14:26:53.762Z,72.9
2018-10-18T14:31:53.611Z,72.9
2018-10-18T14:36:53.432Z,73.4
2018-10-18T14:41:53.718Z,73.4
2018-10-18T14:46:53.648Z,74.2
2018-10-18T14:51:53.563Z,73.8
2018-10-18T14:56:53.729Z,74.4
2018-10-18T15:01:56.766Z,75
2018-10-18T15:06:56.434Z,76.5
2018-10-18T15:12:08.527Z,77.1
2018-10-18T15:17:08.623Z,78.4
2018-10-18T15:22:08.412Z,79.3
2018-10-18T15:27:08.695Z,79.8
2018-10-18T15:32:08.909Z,79.2
2018-10-18T15:37:08.412Z,79.7
2018-10-18T15:42:08.591Z,81.2
2018-10-18T15:47:12.955Z,81.4
2018-10-18T15:52:12.829Z,81
2018-10-18T15:57:23.007Z,82.1
2018-10-18T16:02:22.936Z,83.2
2018-10-18T16:07:22.845Z,81.7
2018-10-18T16:12:22.891Z,82.5
2018-10-18T16:17:22.744Z,83.3
2018-10-18T16:22:22.739Z,82.9
2018-10-18T16:27:22.890Z,84.7
2018-10-18T16:32:25.536Z,83.9
2018-10-18T16:37:25.393Z,86.3
2018-10-18T16:42:37.257Z,86
2018-10-18T16:47:37.219Z,86
2018-10-18T16:52:37.231Z,88.3
2018-10-18T16:57:36.977Z,89.8
2018-10-18T17:02:37.159Z,89.6
2018-10-18T17:07:37.130Z,89.2
2018-10-18T17:12:37.109Z,89.9
2018-10-18T17:17:37.751Z,90.8
2018-10-18T17:22:37.566Z,89.7
2018-10-18T17:27:50.528Z,91
2018-10-18T17:32:50.061Z,91.8
2018-10-18T17:37:49.930Z,91
2018-10-18T17:42:49.930Z,92.2
2018-10-18T17:47:50.075Z,91.4
2018-10-18T17:52:50.210Z,90.9
2018-10-18T17:57:50.142Z,90
2018-10-18T18:02:50.575Z,91.7
2018-10-18T18:07:50.314Z,92.3
2018-10-18T18:13:03.069Z,92.6
2018-10-18T18:18:02.942Z,91.9
2018-10-18T18:23:02.892Z,91.9
2018-10-18T18:28:03.001Z,91.7
2018-10-18T18:33:03.092Z,92.9
2018-10-18T18:38:03.329Z,92.4
2018-10-18T18:43:02.940Z,93.4
2018-10-18T18:48:04.945Z,93.3
2018-10-18T18:53:05.110Z,92.9
2018-10-18T18:58:18.059Z,93.3
2018-10-18T19:03:17.733Z,93.7
2018-10-18T19:08:17.962Z,93.5
2018-10-18T19:13:17.945Z,94.7
2018-10-18T19:18:17.916Z,94.8
2018-10-18T19:23:18.325Z,94.6
2018-10-18T19:28:17.987Z,94.7
2018-10-18T19:33:17.959Z,95.7
2018-10-18T19:38:17.808Z,94.8
2018-10-18T19:43:30.858Z,94.8
2018-10-18T19:48:30.556Z,94.8
2018-10-18T19:53:30.747Z,96.5
2018-10-18T19:58:30.936Z,96.2
2018-10-18T20:03:30.566Z,95.9
2018-10-18T20:08:30.543Z,96.3
2018-10-18T20:13:30.578Z,96.2
2018-10-18T20:18:30.686Z,95.6
2018-10-18T20:23:30.729Z,95.8
2018-10-18T20:28:46.017Z,95
2018-10-18T20:33:45.764Z,94.7
2018-10-18T20:38:45.744Z,95.8
2018-10-18T20:43:45.755Z,94.6
2018-10-18T20:48:45.748Z,96.4
2018-10-18T20:53:45.764Z,96.4
2018-10-18T20:58:46.039Z,95.8
2018-10-18T21:03:47.384Z,95.4
2018-10-18T21:08:47.341Z,95.5
2018-10-18T21:13:57.980Z,97.2
2018-10-18T21:18:57.627Z,97
2018-10-18T21:23:57.678Z,97
2018-10-18T21:28:57.796Z,97.3
2018-10-18T21:33:57.857Z,96.3
2018-10-18T21:38:57.678Z,96.6
2018-10-18T21:43:57.904Z,96.8
2018-10-18T21:49:00.131Z,96.5
2018-10-18T21:53:59.923Z,97.3
2018-10-18T21:59:10.449Z,96.3
2018-10-18T22:04:09.737Z,96.2
2018-10-18T22:09:10.102Z,96.6
2018-10-18T22:14:10.095Z,96.1
2018-10-18T22:19:09.901Z,97.5
2018-10-18T22:24:09.943Z,96.8
2018-10-18T22:29:10.059Z,96.1
2018-10-18T22:34:12.073Z,97.4
2018-10-18T22:39:12.022Z,97.1
2018-10-18T22:44:22.764Z,97.4
2018-10-18T22:49:22.721Z,97.8
2018-10-18T22:54:22.479Z,97.3
2018-10-18T22:59:22.673Z,97.2
2018-10-18T23:04:22.724Z,97.7
2018-10-18T23:09:22.500Z,97.8
2018-10-18T23:14:22.667Z,97.8
2018-10-18T23:19:23.154Z,97.4
2018-10-18T23:24:22.864Z,97.2
2018-10-18T23:29:35.175Z,97
2018-10-18T23:34:35.099Z,99.6
2018-10-18T23:39:35.028Z,97.7
2018-10-18T23:44:34.912Z,97.2
2018-10-18T23:49:34.903Z,97.3
2018-10-18T23:54:34.900Z,98.7
2018-10-18T23:59:34.916Z,98.3
